»·PEaware :: N317CS KSMO-KPSP

N317CS :: KSMO-KPSP

FLIGHT INFORMATION

Flight Status: Arrived
Operator: Privately registered:
United States
More flights under this callsign
Pilot: Liam A. (32590)
Aircraft: CIRRUS SR-22 TURBO
(S22T)
More flights by this aircraft type
Origin: KSMO Santa Monica Mun
United States
Destination: KPSP Palm Springs Intl
United States
More flights between these airports :: More routes between these airports
Route: SMO VNY V186 NIKKL V64 TRM
File this flight plan on PilotEdge
Remarks:
Altitude:
(Current/Filed)
13,000ft
Speed:
(Current/Filed)
165kts
Departed: 08-Jan-21 09:09 PM
Arrived: 08-Jan-21 10:09 PM
Distance/Time
Traveled:
98nm/1:00
Distance/Time
To Go:
Arrived

Flight Plot

Page will automatically refresh every two minutes.

Flight plan parsing failed; only flown route is shown


Map Options




Map Legend


Flown Route
Filed Route
Departure Airport
Arrival Airport
Navaid (VOR, NDB)
Fix

Horizontal Profiles

Position Reports

Time Latitude Longitude Heading Altitude Ground
Speed
08-Jan-21 20:42 34.013263 -118.451600 319 178ft 0kts
08-Jan-21 20:43 34.013263 -118.451600 319 178ft 0kts
08-Jan-21 20:44 34.013263 -118.451600 319 178ft 0kts
08-Jan-21 20:45 34.013263 -118.451600 319 178ft 0kts
08-Jan-21 20:46 34.013263 -118.451600 319 178ft 0kts
08-Jan-21 20:47 34.013263 -118.451600 319 178ft 0kts
08-Jan-21 20:48 34.013263 -118.451600 319 178ft 0kts
08-Jan-21 20:49 34.013263 -118.451600 319 178ft 0kts
08-Jan-21 20:50 34.013263 -118.451600 319 178ft 0kts
08-Jan-21 20:51 34.013263 -118.451600 319 178ft 0kts
08-Jan-21 20:52 34.013263 -118.451600 319 178ft 0kts
08-Jan-21 20:53 34.013263 -118.451600 319 178ft 0kts
08-Jan-21 20:54 34.013263 -118.451600 319 178ft 0kts
08-Jan-21 20:55 34.013263 -118.451600 319 178ft 0kts
08-Jan-21 20:56 34.013263 -118.451600 319 178ft 0kts
08-Jan-21 20:57 34.013263 -118.451600 319 178ft 0kts
08-Jan-21 20:58 34.013263 -118.451600 319 178ft 0kts
08-Jan-21 20:59 34.013263 -118.451600 319 178ft 0kts
08-Jan-21 21:00 34.013263 -118.451600 319 178ft 0kts
08-Jan-21 21:01 34.013263 -118.451600 319 178ft 0kts
08-Jan-21 21:02 34.013263 -118.451600 319 178ft 0kts
08-Jan-21 21:03 34.013285 -118.451612 343 178ft 1kts
08-Jan-21 21:04 34.012898 -118.452955 234 178ft 8kts
08-Jan-21 21:05 34.012353 -118.454480 230 178ft 5kts
08-Jan-21 21:06 34.012310 -118.454541 227 178ft 0kts
08-Jan-21 21:07 34.012230 -118.454647 242 178ft 0kts
08-Jan-21 21:08 34.015468 -118.451682 40 235ft 78kts
08-Jan-21 21:09 34.029285 -118.433423 34 1491ft 87kts
08-Jan-21 21:10 34.037958 -118.454824 258 2902ft 114kts
08-Jan-21 21:11 34.030576 -118.494811 264 3870ft 124kts
08-Jan-21 21:12 34.052113 -118.513175 22 4029ft 143kts
08-Jan-21 21:14 34.085366 -118.502446 5 5124ft 106kts
08-Jan-21 21:15 34.115132 -118.498860 2 6085ft 109kts
08-Jan-21 21:16 34.145490 -118.496562 0 7106ft 113kts
08-Jan-21 21:17 34.176398 -118.494690 0 8151ft 114kts
08-Jan-21 21:18 34.208370 -118.492849 0 9178ft 116kts
08-Jan-21 21:19 34.218140 -118.462791 110 10224ft 139kts
08-Jan-21 21:20 34.202399 -118.419372 103 11198ft 143kts
08-Jan-21 21:21 34.188128 -118.373987 100 12185ft 146kts
08-Jan-21 21:22 34.173764 -118.326805 100 12989ft 163kts
08-Jan-21 21:23 34.156110 -118.268827 102 12977ft 192kts
08-Jan-21 21:24 34.137758 -118.208888 102 12970ft 188kts
08-Jan-21 21:25 34.119723 -118.149850 102 12973ft 187kts
08-Jan-21 21:26 34.101632 -118.090771 102 12974ft 187kts
08-Jan-21 21:27 34.083606 -118.031998 102 12973ft 187kts
08-Jan-21 21:28 34.065498 -117.973135 102 12975ft 187kts
08-Jan-21 21:29 34.047395 -117.914328 102 12973ft 187kts
08-Jan-21 21:30 34.029220 -117.855444 102 12973ft 187kts
08-Jan-21 21:31 34.010981 -117.796525 102 12974ft 187kts
08-Jan-21 21:32 33.991880 -117.737829 104 12974ft 188kts
08-Jan-21 21:32 33.974824 -117.689406 104 12975ft 188kts
08-Jan-21 21:33 33.954359 -117.631299 104 12975ft 188kts
08-Jan-21 21:34 33.933972 -117.573510 104 12975ft 187kts
08-Jan-21 21:36 33.899611 -117.513484 141 12977ft 198kts
08-Jan-21 21:36 33.861723 -117.482102 140 12967ft 197kts
08-Jan-21 21:37 33.816801 -117.444529 140 12970ft 197kts
08-Jan-21 21:38 33.771795 -117.406838 140 12970ft 197kts
08-Jan-21 21:39 33.730878 -117.366069 92 12980ft 180kts
08-Jan-21 21:40 33.725794 -117.306960 86 12969ft 177kts
08-Jan-21 21:41 33.721069 -117.248017 85 12969ft 176kts
08-Jan-21 21:42 33.716313 -117.189231 85 12967ft 176kts
08-Jan-21 21:43 33.711543 -117.130675 85 12970ft 176kts
08-Jan-21 21:44 33.706731 -117.072165 86 12971ft 175kts
08-Jan-21 21:45 33.701846 -117.014053 85 12977ft 174kts
08-Jan-21 21:46 33.697038 -116.956106 85 12980ft 174kts
08-Jan-21 21:47 33.692214 -116.898330 85 12985ft 173kts
08-Jan-21 21:48 33.687395 -116.840874 85 12988ft 172kts
08-Jan-21 21:49 33.682536 -116.782766 86 12725ft 184kts
08-Jan-21 21:50 33.677269 -116.720291 87 11922ft 189kts
08-Jan-21 21:51 33.671884 -116.657302 88 11090ft 190kts
08-Jan-21 21:52 33.666439 -116.593766 90 10199ft 193kts
08-Jan-21 21:53 33.660786 -116.529007 92 9274ft 196kts
08-Jan-21 21:54 33.655203 -116.466434 92 8994ft 178kts
08-Jan-21 21:55 33.650011 -116.407006 92 8625ft 188kts
08-Jan-21 21:56 33.644415 -116.343532 93 7842ft 189kts
08-Jan-21 21:57 33.638907 -116.281235 93 7040ft 186kts
08-Jan-21 21:58 33.633717 -116.222720 91 7000ft 174kts
08-Jan-21 21:59 33.663640 -116.217624 301 6452ft 170kts
08-Jan-21 22:00 33.686417 -116.266396 300 5639ft 156kts
08-Jan-21 22:01 33.706758 -116.309696 301 4806ft 145kts
08-Jan-21 22:02 33.726728 -116.351422 301 4007ft 143kts
08-Jan-21 22:03 33.746500 -116.392401 300 3315ft 142kts
08-Jan-21 22:04 33.765502 -116.431757 300 2728ft 130kts
08-Jan-21 22:05 33.781979 -116.463082 311 1749ft 105kts
08-Jan-21 22:06 33.801820 -116.482990 322 1070ft 77kts
08-Jan-21 22:07 33.819096 -116.498266 323 563ft 77kts
08-Jan-21 22:08 33.829936 -116.507201 0 480ft 12kts
08-Jan-21 22:09 33.831563 -116.505508 142 480ft 10kts
08-Jan-21 22:10 33.828255 -116.502544 142 480ft 15kts
08-Jan-21 22:11 33.827579 -116.501420 255 480ft 0kts

Navigation Log

Ident Type
Flight plan parsing failed, navigation log unavailable